Observations for LONDON GATWICK ARPT, United Kingdom (EGKK)

EGKK 112220Z 08004KT 2000 BR FEW023 02/02 Q1022 
EGKK 112150Z 09004KT 3000 BR NSC 02/02 Q1022
EGKK 112120Z 08006KT 3500 BR NSC 03/03 Q1022
EGKK 112050Z 08005KT 4000 BR FEW022 SCT034 04/04 Q1023  
EGKK 112020Z 08006KT 4000 BR BKN027 04/04 Q1023 
EGKK 111950Z 08004KT 4500 BR SCT025 03/03 Q1023 
EGKK 111920Z 08004KT 4500 BR FEW023 02/02 Q1023 
EGKK 111850Z 08003KT 6000 NSC 04/04 Q1023   
EGKK 111820Z 10003KT 6000 NSC 03/03 Q1023   
EGKK 111750Z 09005KT 7000 NSC 03/03 Q1023   
EGKK 111720Z 09004KT 8000 NSC 05/04 Q1023   
EGKK 111650Z 09004KT 9000 NSC 05/04 Q1023   
EGKK 111620Z 08004KT 9000 NSC 05/04 Q1023   
EGKK 111550Z 09003KT CAVOK 06/04 Q1023  
EGKK 111520Z VRB03KT 9999 FEW035 08/05 Q1023
EGKK 111450Z 18004KT 9999 FEW020 09/05 Q1023
EGKK 111420Z VRB03KT 9999 FEW016 09/05 Q1024
EGKK 111350Z 14004KT 110V180 9999 FEW016 09/05 Q1024
EGKK 111320Z 17004KT 120V200 9999 FEW016 09/05 Q1024
EGKK 111250Z VRB03KT 9999 FEW027 09/05 Q1024
EGKK 111220Z 08002KT CAVOK 08/05 Q1024  
EGKK 111120Z VRB03KT CAVOK 05/04 Q1025  
EGKK 111050Z 09003KT CAVOK 04/03 Q1025  
EGKK 111020Z 10003KT 8000 1200NW R26L/P1500 VCFG NSC 03/02 Q1026
EGKK 110950Z 09002KT 2200 0800NW R26L/P1500 BCFG NSC 02/02 Q1026
EGKK 110920Z 10003KT 1800 0700NW R26L/P1500 BCFG NSC 01/01 Q1026
EGKK 110850Z 09003KT 1800 0800N R26L/P1500 BCFG NSC 00/00 Q1026 
EGKK 110820Z 17001KT 2500 1200N R26L/P1500 BCFG NSC 00/00 Q1026 
EGKK 110750Z 24001KT 2500 1000N R26L/P1500 BCFG NSC 00/00 Q1026 
EGKK 110720Z VRB02KT 2500 PRFG NSC 00/M00 Q1026 
EGKK 110650Z 11002KT 9999 PRFG NSC 00/00 Q1026  
EGKK 110620Z 10001KT CAVOK 00/00 Q1026  
EGKK 110550Z VRB02KT 8000 VCFG NSC 01/01 Q1026  
EGKK 110520Z 00000KT CAVOK 01/01 Q1026  
EGKK 110450Z 00000KT CAVOK 01/00 Q1026  
EGKK 110420Z 25002KT 8000 NSC 01/01 Q1026   
EGKK 110350Z 00000KT CAVOK 01/01 Q1026  
EGKK 110320Z VRB01KT CAVOK 02/02 Q1026  
EGKK 110250Z 25001KT 8000 NSC 02/02 Q1026   
EGKK 110220Z 24001KT 8000 NSC 02/02 Q1027   
EGKK 110150Z VRB01KT CAVOK 02/02 Q1027  
EGKK 110120Z 21002KT CAVOK 03/03 Q1027  
EGKK 110050Z 18003KT CAVOK 05/04 Q1027  
EGKK 110020Z 20002KT CAVOK 05/04 Q1027  
EGKK 102350Z 20001KT CAVOK 05/04 Q1027  
EGKK 102320Z 20003KT CAVOK 06/04 Q1027  
EGKK 102250Z 19003KT CAVOK 06/04 Q1027  
EGKK 102220Z VRB02KT CAVOK 06/04 Q1027  
EGKK 102150Z 28005KT CAVOK 07/05 Q1027